createdAt,value
2022-09-22T00:01:52.501Z,15.90
2022-09-22T00:04:20.774Z,15.90
2022-09-22T00:06:51.418Z,15.90
2022-09-22T00:09:22.019Z,15.90
2022-09-22T00:11:51.483Z,15.90
2022-09-22T00:14:22.074Z,15.80
2022-09-22T00:16:53.248Z,15.80
2022-09-22T00:19:24.438Z,15.80
2022-09-22T00:21:52.700Z,15.80
2022-09-22T00:24:22.947Z,15.80
2022-09-22T00:26:51.901Z,15.70
2022-09-22T00:29:20.953Z,15.70
2022-09-22T00:31:49.115Z,15.80
2022-09-22T00:34:20.962Z,15.70
2022-09-22T00:36:49.725Z,15.70
2022-09-22T00:39:19.243Z,15.60
2022-09-22T00:41:49.071Z,15.60
2022-09-22T00:44:37.892Z,15.60
2022-09-22T00:47:34.157Z,15.60
2022-09-22T00:50:13.582Z,15.60
2022-09-22T00:52:47.111Z,15.60
2022-09-22T00:55:19.233Z,15.50
2022-09-22T00:57:49.102Z,15.50
2022-09-22T01:00:17.697Z,15.50
2022-09-22T01:02:49.232Z,15.50
2022-09-22T01:05:19.830Z,15.50
2022-09-22T01:07:48.991Z,15.40
2022-09-22T01:10:17.352Z,15.40
2022-09-22T01:12:54.149Z,15.40
2022-09-22T01:15:29.361Z,15.40
2022-09-22T01:18:13.876Z,15.40
2022-09-22T01:21:15.068Z,15.30
2022-09-22T01:24:21.827Z,15.30
2022-09-22T01:27:26.652Z,15.30
2022-09-22T01:30:23.890Z,15.20
2022-09-22T01:33:13.322Z,15.20
2022-09-22T01:35:51.586Z,15.10
2022-09-22T01:38:30.292Z,15.10
2022-09-22T01:41:02.780Z,15.10
2022-09-22T01:43:39.131Z,15.00
2022-09-22T01:46:15.825Z,15.00
2022-09-22T01:48:48.124Z,15.00
2022-09-22T01:51:21.113Z,14.90
2022-09-22T01:53:53.905Z,15.00
2022-09-22T01:56:24.591Z,14.90
2022-09-22T01:58:56.512Z,14.90
2022-09-22T02:01:30.103Z,14.90
2022-09-22T02:04:04.082Z,14.90
2022-09-22T02:06:36.535Z,14.90
2022-09-22T02:09:07.690Z,14.90
2022-09-22T02:11:36.086Z,14.80
2022-09-22T02:14:05.336Z,14.80
2022-09-22T02:16:35.924Z,14.80
2022-09-22T02:19:13.373Z,14.80
2022-09-22T02:21:44.502Z,14.80
2022-09-22T02:24:28.163Z,14.70
2022-09-22T02:26:57.743Z,14.80
2022-09-22T02:29:28.456Z,14.70
2022-09-22T02:31:59.734Z,14.70
2022-09-22T02:34:28.585Z,14.70
2022-09-22T02:37:04.716Z,14.70
2022-09-22T02:39:39.948Z,14.70
2022-09-22T02:42:28.005Z,14.70
2022-09-22T02:45:01.888Z,14.70
2022-09-22T02:47:35.416Z,14.60
2022-09-22T02:50:06.976Z,14.60
2022-09-22T02:52:37.012Z,14.60
2022-09-22T02:55:06.041Z,14.60
2022-09-22T02:57:34.386Z,14.60
2022-09-22T03:00:03.685Z,14.60
2022-09-22T03:02:33.394Z,14.60
2022-09-22T03:05:01.662Z,14.60
2022-09-22T03:07:29.876Z,14.60
2022-09-22T03:09:58.052Z,14.50
2022-09-22T03:12:26.272Z,14.50
2022-09-22T03:14:54.481Z,14.50
2022-09-22T03:17:22.720Z,14.40
2022-09-22T03:19:52.452Z,14.40
2022-09-22T03:22:20.564Z,14.40
2022-09-22T03:24:48.668Z,14.40
2022-09-22T03:27:16.829Z,14.40
2022-09-22T03:29:45.030Z,14.30
2022-09-22T03:32:13.223Z,14.30
2022-09-22T03:34:41.433Z,14.30
2022-09-22T03:37:10.992Z,14.30
2022-09-22T03:39:39.132Z,14.30
2022-09-22T03:42:07.511Z,14.30
2022-09-22T03:44:35.952Z,14.30
2022-09-22T03:47:04.341Z,14.30
2022-09-22T03:49:32.566Z,14.20
2022-09-22T03:52:00.840Z,14.20
2022-09-22T03:54:30.575Z,14.20
2022-09-22T03:56:58.946Z,14.10
2022-09-22T03:59:27.133Z,14.20
2022-09-22T04:01:58.253Z,14.10
2022-09-22T04:04:26.639Z,14.10
2022-09-22T04:06:54.775Z,14.10
2022-09-22T04:09:22.975Z,14.10
2022-09-22T04:11:52.495Z,14.10
2022-09-22T04:14:20.902Z,14.10
2022-09-22T04:16:49.237Z,14.10
2022-09-22T04:19:17.537Z,14.10
2022-09-22T04:21:45.806Z,14.10
2022-09-22T04:24:13.972Z,14.10
2022-09-22T04:26:56.427Z,14.00
2022-09-22T04:29:31.830Z,14.00
2022-09-22T04:31:59.983Z,14.00
2022-09-22T04:34:28.273Z,14.00
2022-09-22T04:36:56.450Z,14.00
2022-09-22T04:39:25.099Z,14.00
2022-09-22T04:41:53.557Z,14.00
2022-09-22T04:44:21.722Z,14.00
2022-09-22T04:46:51.347Z,14.00
2022-09-22T04:49:20.288Z,14.00
2022-09-22T04:51:48.885Z,14.00
2022-09-22T04:54:16.959Z,14.00
2022-09-22T04:56:45.290Z,14.00
2022-09-22T04:59:13.522Z,14.00
2022-09-22T05:01:41.749Z,13.90
2022-09-22T05:04:11.773Z,13.90
2022-09-22T05:06:42.215Z,13.90
2022-09-22T05:09:10.432Z,13.90
2022-09-22T05:11:38.671Z,13.90
2022-09-22T05:14:06.927Z,13.90
2022-09-22T05:16:35.247Z,13.80
2022-09-22T05:19:03.506Z,13.90
2022-09-22T05:21:33.047Z,13.90
2022-09-22T05:24:01.308Z,13.90
2022-09-22T05:26:31.000Z,13.90
2022-09-22T05:28:59.267Z,13.90
2022-09-22T05:31:27.545Z,13.90
2022-09-22T05:33:55.937Z,13.90
2022-09-22T05:36:24.155Z,13.90
2022-09-22T05:38:53.741Z,13.90
2022-09-22T05:41:21.876Z,14.00
2022-09-22T05:43:49.998Z,14.00
2022-09-22T05:46:18.236Z,14.00
2022-09-22T05:48:46.383Z,14.00
2022-09-22T05:51:14.502Z,14.00
2022-09-22T05:53:42.681Z,14.10
2022-09-22T05:56:12.184Z,14.10
2022-09-22T05:58:40.455Z,14.10
2022-09-22T06:01:08.666Z,14.20
2022-09-22T06:03:36.946Z,14.20
2022-09-22T06:06:05.321Z,14.30
2022-09-22T06:08:33.548Z,14.30
2022-09-22T06:11:01.654Z,14.30
2022-09-22T06:13:31.187Z,14.40
2022-09-22T06:16:01.777Z,14.40
2022-09-22T06:18:31.499Z,14.50
2022-09-22T06:20:59.993Z,14.60
2022-09-22T06:23:28.152Z,14.60
2022-09-22T06:25:59.435Z,14.60
2022-09-22T06:28:27.648Z,14.70
2022-09-22T06:31:00.607Z,14.70
2022-09-22T06:33:29.029Z,14.80
2022-09-22T06:35:58.401Z,14.90
2022-09-22T06:38:26.655Z,14.90
2022-09-22T06:41:01.234Z,14.90
2022-09-22T06:43:29.485Z,15.00
2022-09-22T06:46:02.769Z,15.00
2022-09-22T06:48:32.105Z,15.10
2022-09-22T06:51:00.348Z,15.10
2022-09-22T06:53:28.529Z,15.20
2022-09-22T06:55:58.509Z,15.20
2022-09-22T06:58:28.047Z,15.30
2022-09-22T07:00:56.226Z,15.30
2022-09-22T07:03:26.670Z,15.40
2022-09-22T07:05:56.483Z,15.50
2022-09-22T07:08:25.782Z,15.50
2022-09-22T07:10:58.275Z,15.60
2022-09-22T07:13:29.703Z,15.60
2022-09-22T07:16:01.828Z,15.60
2022-09-22T07:18:32.008Z,15.70
2022-09-22T07:21:04.301Z,15.80
2022-09-22T07:23:34.792Z,15.80
2022-09-22T07:26:04.726Z,15.90
2022-09-22T07:28:34.931Z,15.90
2022-09-22T07:31:07.991Z,15.90
2022-09-22T07:33:39.198Z,16.00
2022-09-22T07:36:09.976Z,16.00
2022-09-22T07:38:39.241Z,16.10
2022-09-22T07:41:09.547Z,16.20
2022-09-22T07:43:37.728Z,16.20
2022-09-22T07:46:06.506Z,16.20
2022-09-22T07:48:37.767Z,16.30
2022-09-22T07:51:15.723Z,16.40
2022-09-22T07:53:45.024Z,16.40
2022-09-22T07:56:15.153Z,16.50
2022-09-22T07:58:48.223Z,16.50
2022-09-22T08:01:16.913Z,16.50
2022-09-22T08:03:46.521Z,16.30
2022-09-22T08:06:18.493Z,16.30
2022-09-22T08:08:52.465Z,16.30
2022-09-22T08:11:22.844Z,16.20
2022-09-22T08:13:53.412Z,16.20
2022-09-22T08:16:22.691Z,16.20
2022-09-22T08:18:56.575Z,16.20
2022-09-22T08:21:26.826Z,16.20
2022-09-22T08:23:55.143Z,16.20
2022-09-22T08:26:23.616Z,16.20
2022-09-22T08:28:55.903Z,16.20
2022-09-22T08:31:25.129Z,16.20
2022-09-22T08:33:54.929Z,16.20
2022-09-22T08:36:23.663Z,16.20
2022-09-22T08:38:53.251Z,16.20
2022-09-22T08:41:30.585Z,16.20
2022-09-22T08:44:02.111Z,16.30
2022-09-22T08:46:33.643Z,16.30
2022-09-22T08:49:24.010Z,16.30
2022-09-22T08:51:55.534Z,16.30
2022-09-22T08:54:28.371Z,16.40
2022-09-22T08:57:29.341Z,16.40
2022-09-22T09:00:04.235Z,16.40
2022-09-22T09:02:41.304Z,16.50
2022-09-22T09:05:46.037Z,16.50
2022-09-22T09:08:46.051Z,16.50
2022-09-22T09:11:27.077Z,16.60
2022-09-22T09:14:11.943Z,16.60
2022-09-22T09:16:50.058Z,16.70
2022-09-22T09:19:21.811Z,16.70
2022-09-22T09:21:52.769Z,16.70
2022-09-22T09:27:21.743Z,16.80
2022-09-22T09:30:02.589Z,16.80
2022-09-22T09:32:37.797Z,16.90
2022-09-22T09:35:07.447Z,16.90
2022-09-22T09:37:35.944Z,17.00
2022-09-22T09:40:06.126Z,17.00
2022-09-22T09:42:36.867Z,17.10
2022-09-22T09:45:07.075Z,17.10
2022-09-22T09:47:59.118Z,17.10
2022-09-22T09:50:32.304Z,17.20
2022-09-22T09:53:00.825Z,17.10
2022-09-22T09:55:29.474Z,17.20
2022-09-22T09:58:07.187Z,17.30
2022-09-22T10:00:36.098Z,17.30
2022-09-22T10:03:17.494Z,17.30
2022-09-22T10:05:56.964Z,17.30
2022-09-22T10:08:25.180Z,17.40
2022-09-22T10:10:59.104Z,17.40
2022-09-22T10:13:33.984Z,17.50
2022-09-22T10:16:21.264Z,17.60
2022-09-22T10:18:51.066Z,17.60
2022-09-22T10:21:21.127Z,17.60
2022-09-22T10:23:50.771Z,17.60
2022-09-22T10:26:22.838Z,17.80
2022-09-22T10:29:19.623Z,17.80
2022-09-22T10:32:13.534Z,17.80
2022-09-22T10:37:19.183Z,17.90
2022-09-22T10:39:50.322Z,17.90
2022-09-22T10:42:31.919Z,17.90
2022-09-22T10:45:05.741Z,18.00
2022-09-22T10:47:52.266Z,18.10
2022-09-22T10:50:41.498Z,18.10
2022-09-22T10:53:28.441Z,18.20
2022-09-22T10:56:07.386Z,18.20
2022-09-22T10:58:58.352Z,18.20
2022-09-22T11:01:46.773Z,18.20
2022-09-22T11:04:27.325Z,18.20
2022-09-22T11:07:28.604Z,18.20
2022-09-22T11:10:35.661Z,18.30
2022-09-22T11:13:14.975Z,18.40
2022-09-22T11:16:18.985Z,18.40
2022-09-22T11:19:17.669Z,18.50
2022-09-22T11:22:01.735Z,18.60
2022-09-22T11:24:48.938Z,18.60
2022-09-22T11:27:26.754Z,18.60
2022-09-22T11:30:11.228Z,18.60
2022-09-22T11:33:10.110Z,18.60
2022-09-22T11:36:04.679Z,18.70
2022-09-22T11:38:55.476Z,18.80
2022-09-22T11:41:31.066Z,18.90
2022-09-22T11:44:31.384Z,19.00
2022-09-22T11:47:36.062Z,19.00
2022-09-22T11:50:30.848Z,19.00
2022-09-22T11:53:28.971Z,19.10
2022-09-22T11:56:16.170Z,19.10
2022-09-22T11:58:47.246Z,19.10
2022-09-22T12:01:20.689Z,19.10
2022-09-22T12:03:51.887Z,19.10
2022-09-22T12:06:24.648Z,19.00
2022-09-22T12:09:00.703Z,19.00
2022-09-22T12:11:29.377Z,19.00
2022-09-22T12:14:00.765Z,19.00
2022-09-22T12:16:41.792Z,19.10
2022-09-22T12:19:22.804Z,19.20
2022-09-22T12:21:57.379Z,19.20
2022-09-22T12:24:27.065Z,19.20
2022-09-22T12:26:55.272Z,19.10
2022-09-22T12:29:28.331Z,19.20
2022-09-22T12:31:59.043Z,19.20
2022-09-22T12:34:29.645Z,19.30
2022-09-22T12:37:00.454Z,19.30
2022-09-22T12:39:32.790Z,19.20
2022-09-22T12:42:04.181Z,19.30
2022-09-22T12:44:36.426Z,19.30
2022-09-22T12:47:08.291Z,19.30
2022-09-22T12:49:49.325Z,19.40
2022-09-22T12:52:54.499Z,19.50
2022-09-22T12:55:38.340Z,19.50
2022-09-22T12:58:40.403Z,19.40
2022-09-22T13:01:34.580Z,19.50
2022-09-22T13:04:15.646Z,19.50
2022-09-22T13:06:56.001Z,19.50
2022-09-22T13:09:28.729Z,19.50
2022-09-22T13:12:28.175Z,19.50
2022-09-22T13:15:24.756Z,19.50
2022-09-22T13:17:53.259Z,19.50
2022-09-22T13:20:25.135Z,19.40
2022-09-22T13:22:55.305Z,19.50
2022-09-22T13:25:26.687Z,19.50
2022-09-22T13:28:11.708Z,19.60
2022-09-22T13:30:41.453Z,19.60
2022-09-22T13:33:23.370Z,19.60
2022-09-22T13:35:57.220Z,19.70
2022-09-22T13:38:26.379Z,19.70
2022-09-22T13:40:54.650Z,19.60
2022-09-22T13:43:31.382Z,19.60
2022-09-22T13:46:01.411Z,19.50
2022-09-22T13:48:33.526Z,19.50
2022-09-22T13:51:05.205Z,19.50
2022-09-22T13:53:33.822Z,19.50
2022-09-22T13:56:02.359Z,19.50
2022-09-22T13:58:38.486Z,19.60
2022-09-22T14:01:15.678Z,19.60
2022-09-22T14:03:44.789Z,19.60
2022-09-22T14:06:16.273Z,19.50
2022-09-22T14:08:46.756Z,19.60
2022-09-22T14:11:17.158Z,19.60
2022-09-22T14:13:59.326Z,19.60
2022-09-22T14:16:33.255Z,19.50
2022-09-22T14:19:05.888Z,19.50
2022-09-22T14:21:40.881Z,19.50
2022-09-22T14:24:11.525Z,19.60
2022-09-22T14:26:41.133Z,19.60
2022-09-22T14:29:20.404Z,19.60
2022-09-22T14:31:52.686Z,19.60
2022-09-22T14:34:26.505Z,19.70
2022-09-22T14:36:56.254Z,19.70
2022-09-22T14:39:31.757Z,19.60
2022-09-22T14:42:08.992Z,19.70
2022-09-22T14:44:44.031Z,19.70
2022-09-22T14:47:24.283Z,19.70
2022-09-22T14:50:08.750Z,19.70
2022-09-22T14:52:40.654Z,19.70
2022-09-22T14:55:16.966Z,19.70
2022-09-22T14:57:48.835Z,19.70
2022-09-22T15:00:36.774Z,19.80
2022-09-22T15:03:08.454Z,19.80
2022-09-22T15:05:37.651Z,19.80
2022-09-22T15:08:05.772Z,19.80
2022-09-22T15:10:35.212Z,19.80
2022-09-22T15:13:28.193Z,19.80
2022-09-22T15:15:58.383Z,19.80
2022-09-22T15:18:30.555Z,19.70
2022-09-22T15:21:05.014Z,19.70
2022-09-22T15:23:41.778Z,19.70
2022-09-22T15:26:15.970Z,19.70
2022-09-22T15:28:45.159Z,19.70
2022-09-22T15:31:17.031Z,19.60
2022-09-22T15:33:45.187Z,19.60
2022-09-22T15:36:15.949Z,19.60
2022-09-22T15:38:44.370Z,19.60
2022-09-22T15:41:13.067Z,19.60
2022-09-22T15:43:41.835Z,19.60
2022-09-22T15:46:28.280Z,19.60
2022-09-22T15:49:00.881Z,19.50
2022-09-22T15:51:30.674Z,19.50
2022-09-22T15:53:58.826Z,19.60
2022-09-22T15:56:29.993Z,19.60
2022-09-22T15:59:01.221Z,19.50
2022-09-22T16:01:30.780Z,19.50
2022-09-22T16:04:00.174Z,19.50
2022-09-22T16:06:29.309Z,19.50
2022-09-22T16:08:58.497Z,19.50
2022-09-22T16:11:29.633Z,19.40
2022-09-22T16:14:00.678Z,19.40
2022-09-22T16:16:31.155Z,19.30
2022-09-22T16:19:00.053Z,19.30
2022-09-22T16:21:30.277Z,19.30
2022-09-22T16:24:03.664Z,19.20
2022-09-22T16:26:33.518Z,19.20
2022-09-22T16:29:03.277Z,19.20
2022-09-22T16:31:33.597Z,19.20
2022-09-22T16:34:03.603Z,19.20
2022-09-22T16:36:33.866Z,19.20
2022-09-22T16:39:02.717Z,19.20
2022-09-22T16:41:32.277Z,19.20
2022-09-22T16:44:01.845Z,19.20
2022-09-22T16:46:33.874Z,19.10
2022-09-22T16:49:04.335Z,19.10
2022-09-22T16:51:33.451Z,19.00
2022-09-22T16:54:02.122Z,19.00
2022-09-22T16:56:31.655Z,19.00
2022-09-22T16:59:01.586Z,18.90
2022-09-22T17:01:31.254Z,18.90
2022-09-22T17:04:01.742Z,18.90
2022-09-22T17:06:29.951Z,18.90
2022-09-22T17:08:59.265Z,18.80
2022-09-22T17:11:30.185Z,18.70
2022-09-22T17:14:01.454Z,18.70
2022-09-22T17:16:31.037Z,18.70
2022-09-22T17:19:03.123Z,18.60
2022-09-22T17:21:34.292Z,18.60
2022-09-22T17:24:04.574Z,18.50
2022-09-22T17:26:34.508Z,18.50
2022-09-22T17:29:03.058Z,18.50
2022-09-22T17:31:32.146Z,18.50
2022-09-22T17:34:02.185Z,18.40
2022-09-22T17:36:31.229Z,18.40
2022-09-22T17:39:01.695Z,18.40
2022-09-22T17:41:32.808Z,18.40
2022-09-22T17:44:03.235Z,18.40
2022-09-22T17:46:32.952Z,18.40
2022-09-22T17:49:20.429Z,18.40
2022-09-22T17:52:06.639Z,18.40
2022-09-22T17:54:57.040Z,18.50
2022-09-22T17:57:26.907Z,18.50
2022-09-22T17:59:56.359Z,18.50
2022-09-22T18:02:26.728Z,18.60
2022-09-22T18:04:56.713Z,18.60
2022-09-22T18:07:26.842Z,18.60
2022-09-22T18:09:55.542Z,18.60
2022-09-22T18:12:25.518Z,18.60
2022-09-22T18:14:55.524Z,18.60
2022-09-22T18:17:25.470Z,18.60
2022-09-22T18:19:57.090Z,18.60
2022-09-22T18:22:26.674Z,18.60
2022-09-22T18:24:56.250Z,18.60
2022-09-22T18:27:27.013Z,18.50
2022-09-22T18:29:58.577Z,18.60
2022-09-22T18:32:27.781Z,18.50
2022-09-22T18:34:57.405Z,18.50
2022-09-22T18:37:26.880Z,18.50
2022-09-22T18:39:55.131Z,18.40
2022-09-22T18:42:25.352Z,18.40
2022-09-22T18:44:54.682Z,18.40
2022-09-22T18:47:23.391Z,18.40
2022-09-22T18:49:51.841Z,18.40
2022-09-22T18:52:23.819Z,18.30
2022-09-22T18:54:53.804Z,18.30
2022-09-22T18:57:22.828Z,18.30
2022-09-22T18:59:51.385Z,18.30
2022-09-22T19:02:22.836Z,18.20
2022-09-22T19:04:52.318Z,18.20
2022-09-22T19:07:44.199Z,18.20
2022-09-22T19:10:13.984Z,18.20
2022-09-22T19:12:42.897Z,18.20
2022-09-22T19:15:15.134Z,18.10
2022-09-22T19:17:44.842Z,18.10
2022-09-22T19:20:15.732Z,18.10
2022-09-22T19:22:46.029Z,18.10
2022-09-22T19:25:14.401Z,18.00
2022-09-22T19:27:42.742Z,18.00
2022-09-22T19:30:12.049Z,18.00
2022-09-22T19:32:41.195Z,18.00
2022-09-22T19:35:10.043Z,17.90
2022-09-22T19:37:41.300Z,17.90
2022-09-22T19:40:13.322Z,17.90
2022-09-22T19:42:42.124Z,17.80
2022-09-22T19:45:11.060Z,17.80
2022-09-22T19:47:40.674Z,17.80
2022-09-22T19:50:09.669Z,17.80
2022-09-22T19:52:38.437Z,17.70
2022-09-22T19:55:07.525Z,17.70
2022-09-22T19:57:41.162Z,17.70
2022-09-22T20:00:10.765Z,17.60
2022-09-22T20:02:39.175Z,17.60
2022-09-22T20:05:19.101Z,17.60
2022-09-22T20:07:47.333Z,17.60
2022-09-22T20:10:17.196Z,17.50
2022-09-22T20:12:46.966Z,17.50
2022-09-22T20:15:15.886Z,17.50
2022-09-22T20:17:46.217Z,17.40
2022-09-22T20:20:15.432Z,17.40
2022-09-22T20:22:43.776Z,17.40
2022-09-22T20:25:22.103Z,17.30
2022-09-22T20:27:51.842Z,17.30
2022-09-22T20:30:20.080Z,17.30
2022-09-22T20:32:49.185Z,17.30
2022-09-22T20:35:19.334Z,17.30
2022-09-22T20:37:47.453Z,17.20
2022-09-22T20:40:18.658Z,17.20
2022-09-22T20:42:47.370Z,17.20
2022-09-22T20:45:18.202Z,17.20
2022-09-22T20:47:46.371Z,17.20
2022-09-22T20:50:14.510Z,17.10
2022-09-22T20:52:43.620Z,17.10
2022-09-22T20:55:12.456Z,17.10
2022-09-22T20:57:40.863Z,17.10
2022-09-22T21:00:10.260Z,17.10
2022-09-22T21:02:39.788Z,17.10
2022-09-22T21:05:08.863Z,17.00
2022-09-22T21:07:36.992Z,17.00
2022-09-22T21:10:22.796Z,17.00
2022-09-22T21:12:54.989Z,17.00
2022-09-22T21:15:23.266Z,17.00
2022-09-22T21:17:52.924Z,16.90
2022-09-22T21:20:21.618Z,16.90
2022-09-22T21:22:49.750Z,16.90
2022-09-22T21:25:18.130Z,16.90
2022-09-22T21:27:47.139Z,16.90
2022-09-22T21:30:15.443Z,16.80
2022-09-22T21:32:43.617Z,16.80
2022-09-22T21:35:16.726Z,16.80
2022-09-22T21:37:45.138Z,16.80
2022-09-22T21:40:14.250Z,16.80
2022-09-22T21:42:42.523Z,16.70
2022-09-22T21:45:11.496Z,16.70
2022-09-22T21:47:39.679Z,16.70
2022-09-22T21:50:10.105Z,16.70
2022-09-22T21:52:39.670Z,16.70
2022-09-22T21:55:08.642Z,16.60
2022-09-22T21:57:36.771Z,16.60
2022-09-22T22:00:07.462Z,16.60
2022-09-22T22:02:55.741Z,16.60
2022-09-22T22:05:24.112Z,16.60
2022-09-22T22:07:53.663Z,16.60
2022-09-22T22:10:21.768Z,16.50
2022-09-22T22:12:49.921Z,16.50
2022-09-22T22:15:18.170Z,16.50
2022-09-22T22:17:46.293Z,16.40
2022-09-22T22:20:14.825Z,16.40
2022-09-22T22:22:42.931Z,16.40
2022-09-22T22:25:17.339Z,16.40
2022-09-22T22:27:45.965Z,16.40
2022-09-22T22:30:14.652Z,16.40
2022-09-22T22:32:43.291Z,16.30
2022-09-22T22:35:12.368Z,16.30
2022-09-22T22:37:40.481Z,16.30
2022-09-22T22:40:09.488Z,16.30
2022-09-22T22:42:39.003Z,16.30
2022-09-22T22:45:07.742Z,16.30
2022-09-22T22:47:35.851Z,16.30
2022-09-22T22:50:04.018Z,16.20
2022-09-22T22:52:32.412Z,16.20
2022-09-22T22:55:00.595Z,16.20
2022-09-22T22:57:29.785Z,16.20
2022-09-22T22:59:59.293Z,16.20
2022-09-22T23:02:27.619Z,16.20
2022-09-22T23:05:01.138Z,16.10
2022-09-22T23:07:29.520Z,16.10
2022-09-22T23:10:06.415Z,16.10
2022-09-22T23:12:35.175Z,16.10
2022-09-22T23:15:05.208Z,16.10
2022-09-22T23:17:33.442Z,16.10
2022-09-22T23:20:01.713Z,16.00
2022-09-22T23:22:30.627Z,16.10
2022-09-22T23:24:59.704Z,16.00
2022-09-22T23:27:28.446Z,16.00
2022-09-22T23:29:57.392Z,16.00
2022-09-22T23:32:26.902Z,16.00
2022-09-22T23:34:55.054Z,16.00
2022-09-22T23:37:25.038Z,15.90
2022-09-22T23:39:53.874Z,15.90
2022-09-22T23:42:22.534Z,15.90
2022-09-22T23:44:50.890Z,15.90
2022-09-22T23:47:19.510Z,15.90
2022-09-22T23:49:49.050Z,15.80
2022-09-22T23:52:17.463Z,15.80
2022-09-22T23:54:46.208Z,15.80
2022-09-22T23:57:14.399Z,15.80
2022-09-22T23:59:42.639Z,15.80
